AMV105 LZIB-ELLX
Flight info
| Callsign | AMV105 |
|---|---|
| Flight time | 1h 24m |
| Altitude | 38000 |
| Route | TOVKA DCT ERKIR DCT BABEG DCT KOVAN T893 EXCOS |
| Aircraft | B38M/M-SDE1FGHILORVWXY/HB1 |
Departure
| Time | 2026-05-04 19:20 |
|---|---|
| Airport | M. R. Štefánik Airport (LZIB) |
Arrival
| Time | 2026-05-04 20:44 |
|---|---|
| Airport | Luxembourg-Findel International Airport (ELLX) |
| Time | Latitude | Longitude | Altitude | Speed | Heading |
|---|---|---|---|---|---|
| 2026-05-04 18:53 | 48.16914 | 17.20092 | 416 ft | 0 kts | 314° |
| 2026-05-04 19:07 | 48.16903 | 17.20110 | 427 ft | 4 kts | 313° |
| 2026-05-04 19:08 | 48.16883 | 17.20137 | 430 ft | 4 kts | 332° |
| 2026-05-04 19:08 | 48.16868 | 17.20141 | 437 ft | 2 kts | 44° |
| 2026-05-04 19:08 | 48.16867 | 17.20139 | 437 ft | 1 kts | 44° |
| 2026-05-04 19:11 | 48.16868 | 17.20140 | 443 ft | 1 kts | 44° |
| 2026-05-04 19:11 | 48.16879 | 17.20156 | 437 ft | 4 kts | 44° |
| 2026-05-04 19:11 | 48.16903 | 17.20191 | 442 ft | 6 kts | 44° |
| 2026-05-04 19:12 | 48.16939 | 17.20243 | 437 ft | 9 kts | 44° |
| 2026-05-04 19:12 | 48.17050 | 17.20404 | 430 ft | 15 kts | 44° |
| 2026-05-04 19:12 | 48.17136 | 17.20530 | 431 ft | 17 kts | 45° |
| 2026-05-04 19:13 | 48.17236 | 17.20539 | 430 ft | 15 kts | 317° |
| 2026-05-04 19:13 | 48.17296 | 17.20448 | 437 ft | 12 kts | 314° |
| 2026-05-04 19:13 | 48.17359 | 17.20357 | 435 ft | 13 kts | 316° |
| 2026-05-04 19:13 | 48.17409 | 17.20308 | 427 ft | 1 kts | 346° |
| 2026-05-04 19:14 | 48.17427 | 17.20302 | 427 ft | 4 kts | 349° |
| 2026-05-04 19:14 | 48.17457 | 17.20303 | 433 ft | 0 kts | 11° |
| 2026-05-04 19:17 | 48.17472 | 17.20309 | 428 ft | 5 kts | 18° |
| 2026-05-04 19:17 | 48.17512 | 17.20344 | 418 ft | 9 kts | 37° |
| 2026-05-04 19:18 | 48.17549 | 17.20415 | 432 ft | 8 kts | 89° |
| 2026-05-04 19:18 | 48.17537 | 17.20450 | 433 ft | 0 kts | 131° |
| 2026-05-04 19:18 | 48.17535 | 17.20455 | 433 ft | 2 kts | 131° |
| 2026-05-04 19:19 | 48.17474 | 17.20551 | 430 ft | 37 kts | 134° |
| 2026-05-04 19:19 | 48.17144 | 17.21060 | 429 ft | 97 kts | 134° |
| 2026-05-04 19:19 | 48.16558 | 17.21964 | 417 ft | 144 kts | 134° |
| 2026-05-04 19:19 | 48.15820 | 17.23121 | 757 ft | 153 kts | 138° |
| 2026-05-04 19:20 | 48.15076 | 17.24224 | 1351 ft | 156 kts | 139° |
| 2026-05-04 19:20 | 48.14229 | 17.25430 | 1590 ft | 180 kts | 139° |
| 2026-05-04 19:20 | 48.13370 | 17.26793 | 2164 ft | 182 kts | 136° |
| 2026-05-04 19:20 | 48.12463 | 17.28255 | 2463 ft | 202 kts | 137° |
| 2026-05-04 19:21 | 48.11508 | 17.29788 | 3077 ft | 203 kts | 135° |
| 2026-05-04 19:21 | 48.10852 | 17.31705 | 3602 ft | 215 kts | 102° |
| 2026-05-04 19:21 | 48.11036 | 17.33958 | 4165 ft | 229 kts | 69° |
| 2026-05-04 19:21 | 48.12039 | 17.35872 | 4766 ft | 237 kts | 42° |
| 2026-05-04 19:22 | 48.13301 | 17.37502 | 5456 ft | 247 kts | 33° |
| 2026-05-04 19:22 | 48.14976 | 17.38286 | 5904 ft | 263 kts | 355° |
| 2026-05-04 19:22 | 48.16743 | 17.37516 | 6407 ft | 272 kts | 324° |
| 2026-05-04 19:22 | 48.18388 | 17.35968 | 6931 ft | 286 kts | 324° |
| 2026-05-04 19:23 | 48.20082 | 17.34415 | 7837 ft | 285 kts | 324° |
| 2026-05-04 19:23 | 48.21792 | 17.32852 | 8632 ft | 291 kts | 325° |
| 2026-05-04 19:23 | 48.23504 | 17.31198 | 9408 ft | 293 kts | 315° |
| 2026-05-04 19:23 | 48.24691 | 17.28857 | 10171 ft | 285 kts | 289° |
| 2026-05-04 19:24 | 48.25139 | 17.25942 | 10612 ft | 294 kts | 268° |
| 2026-05-04 19:24 | 48.25106 | 17.22771 | 10969 ft | 313 kts | 266° |
| 2026-05-04 19:24 | 48.25043 | 17.19409 | 11267 ft | 332 kts | 265° |
| 2026-05-04 19:24 | 48.24962 | 17.15874 | 11671 ft | 346 kts | 265° |
| 2026-05-04 19:25 | 48.24866 | 17.12240 | 12390 ft | 348 kts | 265° |
| 2026-05-04 19:25 | 48.24763 | 17.08586 | 13130 ft | 354 kts | 265° |
| 2026-05-04 19:25 | 48.24652 | 17.04870 | 13884 ft | 357 kts | 265° |
| 2026-05-04 19:25 | 48.24801 | 17.01133 | 14605 ft | 365 kts | 281° |
| 2026-05-04 19:26 | 48.25700 | 16.97552 | 15490 ft | 368 kts | 289° |
| 2026-05-04 19:26 | 48.26493 | 16.93967 | 16148 ft | 370 kts | 276° |
| 2026-05-04 19:26 | 48.26511 | 16.90123 | 16888 ft | 370 kts | 260° |
| 2026-05-04 19:26 | 48.26113 | 16.86279 | 17573 ft | 375 kts | 259° |
| 2026-05-04 19:27 | 48.25675 | 16.82414 | 18276 ft | 379 kts | 258° |
| 2026-05-04 19:27 | 48.25208 | 16.78509 | 18959 ft | 382 kts | 258° |
| 2026-05-04 19:27 | 48.24723 | 16.74580 | 19625 ft | 384 kts | 258° |
| 2026-05-04 19:27 | 48.24225 | 16.70626 | 20257 ft | 388 kts | 258° |
| 2026-05-04 19:28 | 48.23716 | 16.66627 | 20846 ft | 393 kts | 258° |
| 2026-05-04 19:28 | 48.23202 | 16.62627 | 21419 ft | 396 kts | 259° |
| 2026-05-04 19:28 | 48.22680 | 16.58568 | 22050 ft | 398 kts | 259° |
| 2026-05-04 19:28 | 48.22153 | 16.54482 | 22581 ft | 402 kts | 259° |
| 2026-05-04 19:29 | 48.21618 | 16.50346 | 23099 ft | 406 kts | 259° |
| 2026-05-04 19:29 | 48.21077 | 16.46181 | 23545 ft | 411 kts | 259° |
| 2026-05-04 19:29 | 48.20529 | 16.41971 | 24015 ft | 413 kts | 259° |
| 2026-05-04 19:29 | 48.19976 | 16.37739 | 24504 ft | 414 kts | 259° |
| 2026-05-04 19:30 | 48.19417 | 16.33470 | 24847 ft | 420 kts | 259° |
| 2026-05-04 19:30 | 48.18851 | 16.29163 | 25238 ft | 423 kts | 259° |
| 2026-05-04 19:30 | 48.18280 | 16.24832 | 25719 ft | 424 kts | 259° |
| 2026-05-04 19:30 | 48.17745 | 16.20781 | 26135 ft | 426 kts | 259° |
| 2026-05-04 19:31 | 48.17165 | 16.16411 | 26471 ft | 430 kts | 259° |
| 2026-05-04 19:31 | 48.16577 | 16.11986 | 26825 ft | 434 kts | 259° |
| 2026-05-04 19:31 | 48.15987 | 16.07565 | 27321 ft | 434 kts | 260° |
| 2026-05-04 19:31 | 48.15392 | 16.03117 | 27715 ft | 437 kts | 260° |
| 2026-05-04 19:32 | 48.14789 | 15.98632 | 28028 ft | 441 kts | 259° |
| 2026-05-04 19:32 | 48.14180 | 15.94110 | 28335 ft | 446 kts | 259° |
| 2026-05-04 19:32 | 48.13563 | 15.89542 | 28739 ft | 448 kts | 259° |
| 2026-05-04 19:32 | 48.12942 | 15.84959 | 29111 ft | 450 kts | 259° |
| 2026-05-04 19:33 | 48.12324 | 15.80412 | 29474 ft | 453 kts | 259° |
| 2026-05-04 19:33 | 48.11684 | 15.75723 | 29857 ft | 455 kts | 259° |
| 2026-05-04 19:33 | 48.11050 | 15.71090 | 30181 ft | 457 kts | 259° |
| 2026-05-04 19:33 | 48.10421 | 15.66507 | 30613 ft | 455 kts | 259° |
| 2026-05-04 19:34 | 48.09785 | 15.61885 | 31115 ft | 453 kts | 259° |
| 2026-05-04 19:34 | 48.09148 | 15.57275 | 31597 ft | 450 kts | 259° |
| 2026-05-04 19:34 | 48.08514 | 15.52697 | 32082 ft | 448 kts | 259° |
| 2026-05-04 19:34 | 48.07882 | 15.48153 | 32567 ft | 446 kts | 259° |
| 2026-05-04 19:35 | 48.07252 | 15.43633 | 33084 ft | 442 kts | 259° |
| 2026-05-04 19:35 | 48.06625 | 15.39150 | 33569 ft | 439 kts | 259° |
| 2026-05-04 19:35 | 48.06002 | 15.34708 | 34001 ft | 438 kts | 259° |
| 2026-05-04 19:35 | 48.05377 | 15.30268 | 34377 ft | 436 kts | 259° |
| 2026-05-04 19:36 | 48.04749 | 15.25818 | 34653 ft | 437 kts | 259° |
| 2026-05-04 19:36 | 48.04120 | 15.21377 | 34973 ft | 437 kts | 259° |
| 2026-05-04 19:36 | 48.03492 | 15.16947 | 35306 ft | 436 kts | 259° |
| 2026-05-04 19:36 | 48.02869 | 15.12575 | 35629 ft | 435 kts | 258° |
| 2026-05-04 19:37 | 48.02239 | 15.08164 | 35948 ft | 434 kts | 258° |
| 2026-05-04 19:37 | 48.01607 | 15.03747 | 36272 ft | 434 kts | 258° |
| 2026-05-04 19:37 | 48.00978 | 14.99370 | 36579 ft | 433 kts | 258° |
| 2026-05-04 19:37 | 48.00347 | 14.94985 | 36922 ft | 431 kts | 258° |
| 2026-05-04 19:38 | 47.99717 | 14.90621 | 37185 ft | 430 kts | 258° |
| 2026-05-04 19:38 | 47.99084 | 14.86258 | 37443 ft | 430 kts | 258° |
| 2026-05-04 19:38 | 47.98452 | 14.81904 | 37720 ft | 429 kts | 258° |
| 2026-05-04 19:38 | 47.97819 | 14.77563 | 37935 ft | 429 kts | 258° |
| 2026-05-04 19:39 | 47.97183 | 14.73207 | 37948 ft | 429 kts | 258° |
| 2026-05-04 19:39 | 47.95925 | 14.64634 | 37941 ft | 426 kts | 257° |
| 2026-05-04 19:40 | 47.94649 | 14.55979 | 37927 ft | 427 kts | 257° |
| 2026-05-04 19:40 | 47.93367 | 14.47341 | 37922 ft | 426 kts | 257° |
| 2026-05-04 19:41 | 47.92081 | 14.38720 | 37916 ft | 426 kts | 257° |
| 2026-05-04 19:41 | 47.90788 | 14.30100 | 37914 ft | 426 kts | 257° |
| 2026-05-04 19:42 | 47.89500 | 14.21561 | 37912 ft | 426 kts | 257° |
| 2026-05-04 19:42 | 47.88194 | 14.12949 | 37929 ft | 426 kts | 257° |
| 2026-05-04 19:43 | 47.86883 | 14.04347 | 37944 ft | 425 kts | 257° |
| 2026-05-04 19:43 | 47.85574 | 13.95812 | 37921 ft | 425 kts | 257° |
| 2026-05-04 19:44 | 47.84246 | 13.87198 | 37920 ft | 425 kts | 257° |
| 2026-05-04 19:44 | 47.82926 | 13.78671 | 37916 ft | 425 kts | 257° |
| 2026-05-04 19:45 | 47.81590 | 13.70098 | 37940 ft | 427 kts | 256° |
| 2026-05-04 19:45 | 47.80245 | 13.61505 | 37928 ft | 426 kts | 256° |
| 2026-05-04 19:45 | 47.79572 | 13.57225 | 38056 ft | 426 kts | 256° |
| 2026-05-04 19:46 | 47.79124 | 13.54382 | 37999 ft | 427 kts | 256° |
| 2026-05-04 19:46 | 47.77771 | 13.45820 | 37920 ft | 425 kts | 256° |
| 2026-05-04 19:47 | 47.76191 | 13.35885 | 37916 ft | 425 kts | 256° |
| 2026-05-04 19:47 | 47.75057 | 13.28783 | 37957 ft | 425 kts | 256° |
| 2026-05-04 19:48 | 47.73687 | 13.20258 | 37936 ft | 424 kts | 256° |
| 2026-05-04 19:48 | 47.72312 | 13.11735 | 37905 ft | 425 kts | 256° |
| 2026-05-04 19:49 | 47.70925 | 13.03188 | 37909 ft | 426 kts | 256° |
| 2026-05-04 19:49 | 47.69533 | 12.94652 | 37914 ft | 427 kts | 256° |
| 2026-05-04 19:50 | 47.68129 | 12.86082 | 37917 ft | 428 kts | 256° |
| 2026-05-04 19:50 | 47.66719 | 12.77525 | 37913 ft | 427 kts | 256° |
| 2026-05-04 19:51 | 47.65311 | 12.69019 | 37919 ft | 427 kts | 256° |
| 2026-05-04 19:51 | 47.63889 | 12.60473 | 37916 ft | 426 kts | 256° |
| 2026-05-04 19:52 | 47.62371 | 12.51391 | 37921 ft | 426 kts | 255° |
| 2026-05-04 19:52 | 47.61034 | 12.43423 | 37902 ft | 426 kts | 256° |
| 2026-05-04 19:53 | 47.59598 | 12.34900 | 37916 ft | 427 kts | 256° |
| 2026-05-04 19:53 | 47.58157 | 12.26390 | 37920 ft | 426 kts | 255° |
| 2026-05-04 19:54 | 47.56707 | 12.17865 | 37912 ft | 426 kts | 256° |
| 2026-05-04 19:54 | 47.55265 | 12.09427 | 37925 ft | 426 kts | 256° |
| 2026-05-04 19:54 | 47.54826 | 12.05113 | 37916 ft | 425 kts | 269° |
| 2026-05-04 19:55 | 47.55153 | 12.00775 | 37931 ft | 427 kts | 283° |
| 2026-05-04 19:55 | 47.56174 | 11.96622 | 37918 ft | 431 kts | 295° |
| 2026-05-04 19:55 | 47.57834 | 11.92918 | 37928 ft | 435 kts | 307° |
| 2026-05-04 19:56 | 47.61463 | 11.85749 | 37925 ft | 435 kts | 303° |
| 2026-05-04 19:56 | 47.65044 | 11.78508 | 37917 ft | 436 kts | 303° |
| 2026-05-04 19:57 | 47.68650 | 11.71288 | 37925 ft | 436 kts | 303° |
| 2026-05-04 19:57 | 47.72240 | 11.64091 | 37934 ft | 436 kts | 303° |
| 2026-05-04 19:58 | 47.75847 | 11.56843 | 37931 ft | 436 kts | 303° |
| 2026-05-04 19:58 | 47.79446 | 11.49590 | 37936 ft | 436 kts | 303° |
| 2026-05-04 19:59 | 47.83042 | 11.42326 | 37951 ft | 437 kts | 303° |
| 2026-05-04 19:59 | 47.86646 | 11.35025 | 37963 ft | 438 kts | 303° |
| 2026-05-04 20:00 | 47.90251 | 11.27704 | 37960 ft | 437 kts | 303° |
| 2026-05-04 20:00 | 47.93814 | 11.20447 | 37967 ft | 437 kts | 303° |
| 2026-05-04 20:01 | 47.97400 | 11.13125 | 37964 ft | 437 kts | 303° |
| 2026-05-04 20:01 | 48.00988 | 11.05778 | 37966 ft | 439 kts | 303° |
| 2026-05-04 20:02 | 48.04580 | 10.98404 | 37966 ft | 440 kts | 303° |
| 2026-05-04 20:02 | 48.08172 | 10.91009 | 37964 ft | 440 kts | 303° |
| 2026-05-04 20:03 | 48.11736 | 10.83652 | 37965 ft | 440 kts | 303° |
| 2026-05-04 20:03 | 48.15319 | 10.76235 | 37975 ft | 440 kts | 303° |
| 2026-05-04 20:04 | 48.18895 | 10.68813 | 37971 ft | 439 kts | 302° |
| 2026-05-04 20:04 | 48.22468 | 10.61378 | 37962 ft | 440 kts | 302° |
| 2026-05-04 20:05 | 48.26033 | 10.53938 | 37964 ft | 440 kts | 302° |
| 2026-05-04 20:05 | 48.29601 | 10.46472 | 37970 ft | 440 kts | 302° |
| 2026-05-04 20:06 | 48.33158 | 10.39007 | 37961 ft | 439 kts | 302° |
| 2026-05-04 20:06 | 48.36692 | 10.31572 | 37965 ft | 441 kts | 302° |
| 2026-05-04 20:07 | 48.40247 | 10.24071 | 37964 ft | 441 kts | 302° |
| 2026-05-04 20:07 | 48.43803 | 10.16548 | 37967 ft | 441 kts | 302° |
| 2026-05-04 20:08 | 48.47350 | 10.09022 | 37968 ft | 441 kts | 302° |
| 2026-05-04 20:08 | 48.50896 | 10.01477 | 37964 ft | 441 kts | 302° |
| 2026-05-04 20:09 | 48.54427 | 9.93944 | 37966 ft | 441 kts | 301° |
| 2026-05-04 20:09 | 48.57938 | 9.86435 | 37959 ft | 441 kts | 301° |
| 2026-05-04 20:10 | 48.61469 | 9.78865 | 37959 ft | 441 kts | 301° |
| 2026-05-04 20:10 | 48.64994 | 9.71288 | 37957 ft | 441 kts | 301° |
| 2026-05-04 20:11 | 48.68273 | 9.63513 | 37974 ft | 437 kts | 296° |
| 2026-05-04 20:11 | 48.71219 | 9.55511 | 37960 ft | 438 kts | 295° |
| 2026-05-04 20:12 | 48.74164 | 9.47430 | 37961 ft | 438 kts | 295° |
| 2026-05-04 20:12 | 48.77101 | 9.39337 | 37951 ft | 439 kts | 295° |
| 2026-05-04 20:13 | 48.80031 | 9.31243 | 37954 ft | 438 kts | 295° |
| 2026-05-04 20:13 | 48.82960 | 9.23125 | 37958 ft | 438 kts | 295° |
| 2026-05-04 20:14 | 48.85883 | 9.14996 | 37953 ft | 439 kts | 295° |
| 2026-05-04 20:14 | 48.88583 | 9.06708 | 37965 ft | 433 kts | 283° |
| 2026-05-04 20:15 | 48.90338 | 8.98007 | 37961 ft | 434 kts | 283° |
| 2026-05-04 20:15 | 48.92111 | 8.89245 | 37980 ft | 434 kts | 283° |
| 2026-05-04 20:16 | 48.93869 | 8.80481 | 37951 ft | 433 kts | 283° |
| 2026-05-04 20:16 | 48.94747 | 8.76083 | 37794 ft | 434 kts | 283° |
| 2026-05-04 20:16 | 48.95610 | 8.71757 | 37534 ft | 433 kts | 283° |
| 2026-05-04 20:16 | 48.96494 | 8.67314 | 37269 ft | 433 kts | 283° |
| 2026-05-04 20:17 | 48.97353 | 8.62986 | 37022 ft | 433 kts | 283° |
| 2026-05-04 20:17 | 48.98219 | 8.58609 | 36767 ft | 434 kts | 283° |
| 2026-05-04 20:17 | 48.99090 | 8.54202 | 36372 ft | 433 kts | 283° |
| 2026-05-04 20:17 | 48.99954 | 8.49819 | 35842 ft | 432 kts | 283° |
| 2026-05-04 20:18 | 49.00817 | 8.45429 | 35267 ft | 432 kts | 282° |
| 2026-05-04 20:18 | 49.01675 | 8.41054 | 34693 ft | 432 kts | 282° |
| 2026-05-04 20:18 | 49.02536 | 8.36660 | 34124 ft | 433 kts | 282° |
| 2026-05-04 20:18 | 49.03384 | 8.32319 | 33493 ft | 433 kts | 282° |
| 2026-05-04 20:19 | 49.04242 | 8.27911 | 32815 ft | 435 kts | 282° |
| 2026-05-04 20:19 | 49.05102 | 8.23489 | 32124 ft | 438 kts | 282° |
| 2026-05-04 20:19 | 49.05963 | 8.19056 | 31525 ft | 433 kts | 282° |
| 2026-05-04 20:19 | 49.06813 | 8.14677 | 31035 ft | 434 kts | 282° |
| 2026-05-04 20:20 | 49.07684 | 8.10232 | 30430 ft | 439 kts | 282° |
| 2026-05-04 20:20 | 49.08558 | 8.05761 | 29792 ft | 441 kts | 282° |
| 2026-05-04 20:20 | 49.09436 | 8.01265 | 29097 ft | 442 kts | 282° |
| 2026-05-04 20:20 | 49.10306 | 7.96792 | 28437 ft | 439 kts | 282° |
| 2026-05-04 20:21 | 49.11171 | 7.92337 | 27812 ft | 435 kts | 282° |
| 2026-05-04 20:21 | 49.12026 | 7.87920 | 27170 ft | 432 kts | 282° |
| 2026-05-04 20:21 | 49.13694 | 7.79276 | 25952 ft | 424 kts | 282° |
| 2026-05-04 20:22 | 49.14523 | 7.74965 | 25352 ft | 421 kts | 282° |
| 2026-05-04 20:22 | 49.15343 | 7.70691 | 24774 ft | 418 kts | 282° |
| 2026-05-04 20:22 | 49.16156 | 7.66448 | 24197 ft | 415 kts | 283° |
| 2026-05-04 20:22 | 49.16960 | 7.62236 | 23641 ft | 412 kts | 283° |
| 2026-05-04 20:23 | 49.17756 | 7.58056 | 22989 ft | 409 kts | 283° |
| 2026-05-04 20:23 | 49.18547 | 7.53901 | 22357 ft | 405 kts | 283° |
| 2026-05-04 20:23 | 49.19325 | 7.49797 | 21739 ft | 402 kts | 282° |
| 2026-05-04 20:23 | 49.20099 | 7.45710 | 21141 ft | 398 kts | 282° |
| 2026-05-04 20:24 | 49.20853 | 7.41721 | 20561 ft | 394 kts | 282° |
| 2026-05-04 20:24 | 49.21607 | 7.37722 | 19984 ft | 391 kts | 282° |
| 2026-05-04 20:24 | 49.22354 | 7.33751 | 19391 ft | 387 kts | 282° |
| 2026-05-04 20:24 | 49.23094 | 7.29811 | 18784 ft | 383 kts | 282° |
| 2026-05-04 20:25 | 49.23824 | 7.25913 | 18158 ft | 380 kts | 282° |
| 2026-05-04 20:25 | 49.24550 | 7.22030 | 17497 ft | 379 kts | 282° |
| 2026-05-04 20:25 | 49.25271 | 7.18170 | 16880 ft | 376 kts | 282° |
| 2026-05-04 20:25 | 49.25986 | 7.14328 | 16283 ft | 373 kts | 282° |
| 2026-05-04 20:26 | 49.26689 | 7.10542 | 15715 ft | 369 kts | 282° |
| 2026-05-04 20:26 | 49.27383 | 7.06802 | 15152 ft | 362 kts | 282° |
| 2026-05-04 20:26 | 49.28068 | 7.03104 | 14591 ft | 361 kts | 282° |
| 2026-05-04 20:26 | 49.28743 | 6.99454 | 14035 ft | 360 kts | 283° |
| 2026-05-04 20:27 | 49.29465 | 6.95788 | 13412 ft | 361 kts | 289° |
| 2026-05-04 20:27 | 49.30778 | 6.92519 | 12674 ft | 362 kts | 307° |
| 2026-05-04 20:27 | 49.32440 | 6.89670 | 12172 ft | 357 kts | 307° |
| 2026-05-04 20:27 | 49.34088 | 6.86823 | 11922 ft | 356 kts | 308° |
| 2026-05-04 20:28 | 49.35738 | 6.83990 | 11741 ft | 356 kts | 308° |
| 2026-05-04 20:28 | 49.37357 | 6.81220 | 11522 ft | 338 kts | 307° |
| 2026-05-04 20:28 | 49.38868 | 6.78635 | 11373 ft | 314 kts | 307° |
| 2026-05-04 20:28 | 49.40272 | 6.76232 | 11242 ft | 293 kts | 307° |
| 2026-05-04 20:29 | 49.41593 | 6.73966 | 11003 ft | 286 kts | 307° |
| 2026-05-04 20:29 | 49.42920 | 6.71691 | 10697 ft | 286 kts | 307° |
| 2026-05-04 20:29 | 49.44245 | 6.69415 | 10408 ft | 285 kts | 307° |
| 2026-05-04 20:29 | 49.45564 | 6.67150 | 10119 ft | 284 kts | 307° |
| 2026-05-04 20:30 | 49.46878 | 6.64891 | 9827 ft | 283 kts | 307° |
| 2026-05-04 20:30 | 49.48187 | 6.62639 | 9501 ft | 282 kts | 306° |
| 2026-05-04 20:30 | 49.49493 | 6.60388 | 9170 ft | 281 kts | 306° |
| 2026-05-04 20:30 | 49.50792 | 6.58149 | 8863 ft | 280 kts | 306° |
| 2026-05-04 20:31 | 49.52087 | 6.55916 | 8545 ft | 279 kts | 306° |
| 2026-05-04 20:31 | 49.53374 | 6.53693 | 8237 ft | 278 kts | 306° |
| 2026-05-04 20:31 | 49.54652 | 6.51485 | 7931 ft | 276 kts | 306° |
| 2026-05-04 20:31 | 49.55910 | 6.49312 | 7615 ft | 275 kts | 306° |
| 2026-05-04 20:32 | 49.57146 | 6.47087 | 7323 ft | 271 kts | 299° |
| 2026-05-04 20:32 | 49.58002 | 6.44538 | 7027 ft | 267 kts | 289° |
| 2026-05-04 20:32 | 49.58777 | 6.41934 | 6727 ft | 268 kts | 289° |
| 2026-05-04 20:32 | 49.59557 | 6.39334 | 6445 ft | 267 kts | 289° |
| 2026-05-04 20:33 | 49.60337 | 6.36742 | 6132 ft | 266 kts | 289° |
| 2026-05-04 20:33 | 49.61116 | 6.34156 | 5828 ft | 266 kts | 289° |
| 2026-05-04 20:33 | 49.61893 | 6.31579 | 5506 ft | 265 kts | 289° |
| 2026-05-04 20:33 | 49.62667 | 6.29004 | 5222 ft | 264 kts | 291° |
| 2026-05-04 20:34 | 49.63471 | 6.26465 | 4913 ft | 264 kts | 299° |
| 2026-05-04 20:34 | 49.64777 | 6.24510 | 4575 ft | 270 kts | 327° |
| 2026-05-04 20:34 | 49.66518 | 6.23417 | 4270 ft | 270 kts | 339° |
| 2026-05-04 20:34 | 49.68280 | 6.22464 | 4039 ft | 267 kts | 339° |
| 2026-05-04 20:35 | 49.70040 | 6.21523 | 4020 ft | 268 kts | 339° |
| 2026-05-04 20:35 | 49.71792 | 6.20591 | 4020 ft | 268 kts | 339° |
| 2026-05-04 20:35 | 49.73557 | 6.19655 | 4029 ft | 268 kts | 339° |
| 2026-05-04 20:35 | 49.75319 | 6.18719 | 4026 ft | 268 kts | 339° |
| 2026-05-04 20:36 | 49.77078 | 6.17788 | 4019 ft | 267 kts | 340° |
| 2026-05-04 20:36 | 49.78900 | 6.17434 | 3984 ft | 263 kts | 9° |
| 2026-05-04 20:36 | 49.80441 | 6.18675 | 4079 ft | 247 kts | 49° |
| 2026-05-04 20:36 | 49.81169 | 6.20987 | 4125 ft | 239 kts | 78° |
| 2026-05-04 20:37 | 49.81761 | 6.23392 | 4067 ft | 243 kts | 68° |
| 2026-05-04 20:37 | 49.82085 | 6.25932 | 3899 ft | 238 kts | 100° |
| 2026-05-04 20:37 | 49.81641 | 6.28335 | 4014 ft | 230 kts | 115° |
| 2026-05-04 20:37 | 49.81049 | 6.30622 | 4015 ft | 228 kts | 115° |
| 2026-05-04 20:38 | 49.80441 | 6.32885 | 3967 ft | 227 kts | 116° |
| 2026-05-04 20:38 | 49.79820 | 6.35135 | 3965 ft | 228 kts | 117° |
| 2026-05-04 20:38 | 49.79182 | 6.37378 | 3978 ft | 227 kts | 121° |
| 2026-05-04 20:38 | 49.78166 | 6.39144 | 4011 ft | 218 kts | 149° |
| 2026-05-04 20:39 | 49.76869 | 6.40377 | 4027 ft | 219 kts | 152° |
| 2026-05-04 20:39 | 49.75566 | 6.41580 | 4017 ft | 214 kts | 152° |
| 2026-05-04 20:39 | 49.74352 | 6.42682 | 4035 ft | 200 kts | 153° |
| 2026-05-04 20:39 | 49.73127 | 6.43641 | 4011 ft | 195 kts | 167° |
| 2026-05-04 20:40 | 49.71812 | 6.43587 | 3974 ft | 190 kts | 199° |
| 2026-05-04 20:40 | 49.70780 | 6.42534 | 4061 ft | 174 kts | 220° |
| 2026-05-04 20:40 | 49.70015 | 6.41081 | 3851 ft | 176 kts | 233° |
| 2026-05-04 20:40 | 49.69418 | 6.39470 | 3613 ft | 168 kts | 237° |
| 2026-05-04 20:41 | 49.68860 | 6.37920 | 3392 ft | 162 kts | 236° |
| 2026-05-04 20:41 | 49.68334 | 6.36492 | 3177 ft | 146 kts | 235° |
| 2026-05-04 20:41 | 49.67822 | 6.35112 | 2964 ft | 141 kts | 235° |
| 2026-05-04 20:41 | 49.67350 | 6.33839 | 2781 ft | 142 kts | 235° |
| 2026-05-04 20:42 | 49.66865 | 6.32531 | 2562 ft | 142 kts | 235° |
| 2026-05-04 20:42 | 49.66365 | 6.31218 | 2386 ft | 140 kts | 234° |
| 2026-05-04 20:42 | 49.65881 | 6.29892 | 2206 ft | 144 kts | 237° |
| 2026-05-04 20:42 | 49.65393 | 6.28532 | 2114 ft | 144 kts | 237° |
| 2026-05-04 20:43 | 49.64871 | 6.27185 | 1904 ft | 149 kts | 234° |
| 2026-05-04 20:43 | 49.64355 | 6.25792 | 1632 ft | 151 kts | 238° |
| 2026-05-04 20:43 | 49.63842 | 6.24401 | 1365 ft | 149 kts | 239° |
| 2026-05-04 20:43 | 49.63348 | 6.23030 | 1224 ft | 142 kts | 234° |
| 2026-05-04 20:44 | 49.62921 | 6.21916 | 1219 ft | 91 kts | 239° |
| 2026-05-04 20:44 | 49.62707 | 6.21333 | 1233 ft | 43 kts | 240° |
| 2026-05-04 20:44 | 49.62644 | 6.20936 | 1238 ft | 24 kts | 269° |
| 2026-05-04 20:44 | 49.62658 | 6.20786 | 1240 ft | 12 kts | 298° |
| 2026-05-04 20:45 | 49.62669 | 6.20764 | 1239 ft | 0 kts | 314° |
| 2026-05-04 20:46 | 49.62669 | 6.20763 | 1239 ft | 0 kts | 314° |
| 2026-05-04 20:46 | 49.62683 | 6.20749 | 1244 ft | 4 kts | 331° |
| 2026-05-04 20:47 | 49.62721 | 6.20734 | 1241 ft | 7 kts | 359° |
| 2026-05-04 20:47 | 49.62780 | 6.20759 | 1250 ft | 11 kts | 26° |
| 2026-05-04 20:47 | 49.62834 | 6.20862 | 1238 ft | 15 kts | 63° |
| 2026-05-04 20:47 | 49.62892 | 6.21048 | 1240 ft | 22 kts | 63° |
| 2026-05-04 20:48 | 49.62965 | 6.21281 | 1242 ft | 26 kts | 64° |
| 2026-05-04 20:48 | 49.63025 | 6.21467 | 1230 ft | 15 kts | 63° |
| 2026-05-04 20:48 | 49.63067 | 6.21606 | 1228 ft | 11 kts | 58° |
| 2026-05-04 20:48 | 49.63096 | 6.21631 | 1230 ft | 0 kts | 7° |
| 2026-05-04 20:49 | 49.63101 | 6.21632 | 1230 ft | 3 kts | 0° |
| 2026-05-04 20:50 | 49.63126 | 6.21621 | 1232 ft | 4 kts | 336° |
| 2026-05-04 20:50 | 49.63138 | 6.21596 | 1232 ft | 2 kts | 273° |
| 2026-05-04 20:50 | 49.63130 | 6.21557 | 1232 ft | 4 kts | 244° |
| 2026-05-04 20:50 | 49.63122 | 6.21531 | 1232 ft | 0 kts | 242° |
| 2026-05-04 20:51 | 49.63121 | 6.21529 | 1232 ft | 0 kts | 241° |